createdAt,value
2022-11-20T00:01:31.631Z,96.20
2022-11-20T00:03:59.166Z,96.50
2022-11-20T00:06:27.662Z,96.33
2022-11-20T00:08:59.336Z,96.18
2022-11-20T00:11:28.004Z,96.36
2022-11-20T00:13:58.229Z,96.73
2022-11-20T00:16:27.070Z,96.37
2022-11-20T00:18:55.194Z,95.94
2022-11-20T00:21:25.478Z,96.29
2022-11-20T00:23:55.309Z,96.21
2022-11-20T00:26:24.110Z,96.16
2022-11-20T00:28:53.489Z,96.28
2022-11-20T00:31:20.670Z,96.59
2022-11-20T00:33:47.867Z,96.74
2022-11-20T00:36:17.727Z,96.95
2022-11-20T00:38:46.378Z,97.21
2022-11-20T00:41:15.853Z,98.03
2022-11-20T00:43:42.867Z,98.77
2022-11-20T00:46:22.310Z,98.33
2022-11-20T00:48:49.448Z,98.16
2022-11-20T00:51:19.943Z,97.92
2022-11-20T00:53:47.543Z,97.59
2022-11-20T00:56:17.733Z,97.49
2022-11-20T00:58:47.055Z,97.41
2022-11-20T01:01:19.961Z,97.23
2022-11-20T01:03:51.803Z,97.28
2022-11-20T01:06:40.139Z,97.20
2022-11-20T01:09:11.789Z,97.31
2022-11-20T01:11:42.082Z,97.92
2022-11-20T01:14:17.146Z,98.32
2022-11-20T01:16:46.920Z,98.30
2022-11-20T01:19:18.187Z,98.42
2022-11-20T01:21:47.329Z,98.80
2022-11-20T01:24:15.679Z,98.71
2022-11-20T01:26:44.071Z,98.64
2022-11-20T01:29:21.353Z,98.99
2022-11-20T01:31:48.509Z,99.03
2022-11-20T01:34:18.520Z,99.14
2022-11-20T01:36:45.944Z,100.00
2022-11-20T01:39:17.184Z,100.00
2022-11-20T01:42:09.374Z,100.00
2022-11-20T01:44:57.689Z,100.00
2022-11-20T01:47:39.870Z,100.00
2022-11-20T01:50:22.870Z,100.00
2022-11-20T01:52:55.966Z,100.00
2022-11-20T01:55:29.197Z,100.00
2022-11-20T01:57:56.686Z,99.89
2022-11-20T02:00:23.468Z,99.08
2022-11-20T02:02:58.269Z,98.67
2022-11-20T02:05:44.552Z,98.73
2022-11-20T02:08:12.824Z,98.54
2022-11-20T02:10:39.588Z,97.93
2022-11-20T02:13:25.344Z,98.02
2022-11-20T02:15:52.906Z,97.79
2022-11-20T02:18:21.084Z,97.87
2022-11-20T02:20:51.140Z,97.81
2022-11-20T02:23:48.786Z,98.35
2022-11-20T02:26:18.004Z,98.28
2022-11-20T02:28:45.068Z,98.13
2022-11-20T02:31:11.959Z,98.25
2022-11-20T02:33:39.243Z,98.52
2022-11-20T02:36:06.568Z,98.39
2022-11-20T02:38:33.523Z,98.25
2022-11-20T02:41:00.316Z,98.00
2022-11-20T02:43:27.119Z,97.77
2022-11-20T02:45:53.923Z,97.70
2022-11-20T02:48:20.736Z,97.72
2022-11-20T02:50:48.195Z,97.86
2022-11-20T02:53:14.928Z,98.24
2022-11-20T02:55:41.852Z,98.21
2022-11-20T02:58:08.690Z,98.18
2022-11-20T03:00:36.512Z,98.22
2022-11-20T03:03:03.395Z,98.07
2022-11-20T03:05:30.162Z,97.87
2022-11-20T03:07:56.927Z,97.81
2022-11-20T03:10:23.912Z,97.69
2022-11-20T03:12:56.868Z,97.81
2022-11-20T03:15:24.645Z,98.76
2022-11-20T03:17:55.744Z,98.60
2022-11-20T03:20:23.211Z,98.65
2022-11-20T03:22:50.107Z,98.66
2022-11-20T03:25:17.000Z,98.64
2022-11-20T03:27:43.779Z,98.57
2022-11-20T03:30:11.049Z,98.38
2022-11-20T03:32:37.873Z,98.11
2022-11-20T03:35:05.037Z,97.98
2022-11-20T03:37:32.824Z,97.94
2022-11-20T03:39:59.724Z,98.38
2022-11-20T03:42:45.205Z,98.13
2022-11-20T03:45:12.755Z,98.47
2022-11-20T03:47:39.970Z,98.36
2022-11-20T03:50:07.252Z,98.17
2022-11-20T03:52:34.016Z,98.00
2022-11-20T03:55:00.843Z,98.05
2022-11-20T03:57:27.592Z,98.02
2022-11-20T03:59:54.314Z,98.38
2022-11-20T04:02:21.150Z,98.35
2022-11-20T04:04:47.879Z,98.43
2022-11-20T04:07:14.717Z,98.29
2022-11-20T04:09:41.592Z,98.52
2022-11-20T04:12:08.406Z,98.57
2022-11-20T04:14:35.134Z,98.26
2022-11-20T04:17:01.989Z,98.11
2022-11-20T04:19:28.860Z,98.22
2022-11-20T04:21:55.629Z,98.02
2022-11-20T04:24:22.415Z,97.97
2022-11-20T04:26:49.190Z,98.17
2022-11-20T04:29:16.272Z,97.83
2022-11-20T04:31:43.085Z,97.97
2022-11-20T04:34:12.819Z,97.93
2022-11-20T04:36:39.686Z,98.07
2022-11-20T04:39:07.474Z,97.91
2022-11-20T04:41:36.481Z,97.91
2022-11-20T04:44:05.306Z,97.83
2022-11-20T04:46:35.484Z,97.88
2022-11-20T04:49:02.433Z,97.93
2022-11-20T04:51:29.429Z,97.92
2022-11-20T04:53:56.445Z,98.03
2022-11-20T04:56:23.510Z,97.73
2022-11-20T04:58:51.006Z,97.37
2022-11-20T05:01:20.379Z,97.14
2022-11-20T05:03:47.354Z,96.94
2022-11-20T05:06:16.383Z,96.65
2022-11-20T05:08:43.703Z,97.32
2022-11-20T05:11:13.471Z,97.17
2022-11-20T05:13:40.852Z,97.61
2022-11-20T05:16:10.933Z,97.39
2022-11-20T05:18:38.794Z,97.45
2022-11-20T05:21:06.587Z,97.27
2022-11-20T05:23:34.323Z,96.91
2022-11-20T05:26:01.954Z,96.69
2022-11-20T05:28:30.282Z,96.96
2022-11-20T05:30:57.129Z,97.06
2022-11-20T05:33:23.954Z,96.98
2022-11-20T05:35:50.987Z,96.65
2022-11-20T05:38:17.760Z,96.69
2022-11-20T05:40:44.654Z,96.29
2022-11-20T05:43:11.430Z,96.21
2022-11-20T05:45:38.279Z,96.32
2022-11-20T05:48:05.283Z,96.45
2022-11-20T05:50:32.117Z,96.36
2022-11-20T05:53:00.600Z,95.64
2022-11-20T05:55:28.278Z,95.53
2022-11-20T05:57:56.168Z,95.39
2022-11-20T06:00:23.363Z,95.25
2022-11-20T06:02:50.256Z,95.37
2022-11-20T06:05:17.323Z,95.52
2022-11-20T06:07:44.338Z,94.74
2022-11-20T06:10:11.440Z,94.80
2022-11-20T06:12:38.260Z,94.45
2022-11-20T06:15:06.649Z,94.32
2022-11-20T06:17:33.381Z,94.13
2022-11-20T06:20:00.360Z,94.20
2022-11-20T06:22:27.167Z,93.74
2022-11-20T06:24:53.949Z,93.57
2022-11-20T06:27:20.804Z,93.84
2022-11-20T06:29:47.593Z,93.96
2022-11-20T06:32:14.473Z,94.10
2022-11-20T06:34:41.284Z,93.70
2022-11-20T06:37:08.094Z,93.91
2022-11-20T06:39:34.891Z,93.71
2022-11-20T06:42:01.643Z,93.19
2022-11-20T06:44:28.417Z,93.34
2022-11-20T06:46:55.259Z,93.28
2022-11-20T06:49:22.358Z,93.00
2022-11-20T06:51:49.296Z,92.97
2022-11-20T06:54:16.118Z,92.15
2022-11-20T06:56:42.921Z,92.55
2022-11-20T06:59:09.917Z,92.17
2022-11-20T07:01:37.258Z,91.90
2022-11-20T07:04:04.298Z,91.91
2022-11-20T07:06:31.270Z,91.54
2022-11-20T07:08:58.547Z,90.85
2022-11-20T07:11:25.430Z,91.02
2022-11-20T07:13:52.221Z,91.21
2022-11-20T07:16:19.300Z,90.21
2022-11-20T07:18:50.466Z,89.55
2022-11-20T07:21:18.311Z,88.45
2022-11-20T07:23:45.158Z,89.19
2022-11-20T07:26:12.229Z,89.04
2022-11-20T07:28:39.453Z,88.87
2022-11-20T07:31:14.620Z,88.58
2022-11-20T07:33:44.436Z,88.74
2022-11-20T07:36:11.403Z,88.41
2022-11-20T07:38:38.977Z,88.05
2022-11-20T07:41:05.979Z,88.21
2022-11-20T07:43:35.874Z,87.56
2022-11-20T07:46:06.673Z,87.56
2022-11-20T07:48:33.513Z,87.83
2022-11-20T07:51:00.425Z,87.19
2022-11-20T07:53:27.305Z,86.92
2022-11-20T07:55:54.234Z,86.95
2022-11-20T07:58:22.489Z,87.12
2022-11-20T08:00:49.754Z,86.82
2022-11-20T08:03:21.636Z,86.44
2022-11-20T08:05:51.332Z,86.74
2022-11-20T08:08:18.433Z,86.92
2022-11-20T08:10:45.265Z,86.49
2022-11-20T08:13:30.778Z,86.51
2022-11-20T08:15:57.605Z,86.21
2022-11-20T08:18:31.166Z,85.64
2022-11-20T08:20:59.274Z,85.06
2022-11-20T08:23:26.116Z,85.68
2022-11-20T08:25:52.915Z,85.42
2022-11-20T08:28:22.296Z,84.83
2022-11-20T08:30:51.251Z,85.10
2022-11-20T08:33:19.290Z,84.55
2022-11-20T08:35:46.499Z,85.17
2022-11-20T08:38:13.273Z,85.09
2022-11-20T08:40:40.021Z,85.27
2022-11-20T08:43:06.853Z,84.71
2022-11-20T08:45:34.955Z,85.13
2022-11-20T08:48:04.230Z,85.15
2022-11-20T08:50:33.326Z,84.88
2022-11-20T08:53:05.498Z,84.46
2022-11-20T08:55:32.607Z,84.17
2022-11-20T08:57:59.516Z,84.26
2022-11-20T09:00:27.138Z,84.47
2022-11-20T09:02:54.062Z,83.82
2022-11-20T09:05:20.910Z,83.24
2022-11-20T09:07:47.745Z,84.03
2022-11-20T09:10:24.018Z,83.90
2022-11-20T09:12:52.953Z,82.84
2022-11-20T09:15:20.338Z,83.14
2022-11-20T09:17:57.824Z,82.78
2022-11-20T09:20:25.449Z,83.17
2022-11-20T09:22:52.711Z,82.90
2022-11-20T09:25:21.589Z,83.52
2022-11-20T09:27:48.816Z,83.68
2022-11-20T09:30:16.609Z,83.96
2022-11-20T09:32:43.895Z,83.93
2022-11-20T09:35:11.928Z,83.88
2022-11-20T09:37:39.187Z,83.98
2022-11-20T09:40:06.641Z,84.07
2022-11-20T09:42:48.649Z,84.23
2022-11-20T09:45:24.523Z,83.46
2022-11-20T09:48:16.881Z,82.75
2022-11-20T09:50:48.815Z,82.88
2022-11-20T09:53:35.080Z,82.55
2022-11-20T09:56:04.383Z,82.81
2022-11-20T09:58:41.508Z,82.64
2022-11-20T10:01:15.599Z,81.63
2022-11-20T10:03:52.743Z,81.66
2022-11-20T10:06:25.282Z,81.46
2022-11-20T10:09:20.067Z,80.05
2022-11-20T10:12:29.426Z,80.30
2022-11-20T10:15:05.137Z,79.43
2022-11-20T10:17:56.536Z,79.50
2022-11-20T10:20:47.704Z,78.82
2022-11-20T10:23:29.468Z,76.75
2022-11-20T10:26:03.976Z,74.42
2022-11-20T10:29:00.661Z,73.33
2022-11-20T10:31:42.466Z,74.86
2022-11-20T10:34:25.289Z,73.97
2022-11-20T10:37:04.818Z,73.46
2022-11-20T10:39:42.411Z,72.54
2022-11-20T10:42:18.329Z,71.37
2022-11-20T10:45:05.736Z,68.97
2022-11-20T10:47:33.922Z,68.83
2022-11-20T10:50:10.750Z,65.77
2022-11-20T10:52:56.018Z,66.49
2022-11-20T10:55:33.960Z,61.69
2022-11-20T10:58:08.169Z,62.99
2022-11-20T11:00:35.034Z,62.90
2022-11-20T11:03:04.020Z,62.62
2022-11-20T11:05:40.540Z,63.51
2022-11-20T11:08:14.784Z,61.35
2022-11-20T11:11:20.347Z,62.51
2022-11-20T11:13:47.173Z,63.58
2022-11-20T11:16:28.078Z,61.71
2022-11-20T11:19:13.290Z,63.08
2022-11-20T11:21:53.841Z,62.88
2022-11-20T11:24:46.000Z,62.39
2022-11-20T11:27:19.136Z,63.20
2022-11-20T11:29:47.140Z,63.82
2022-11-20T11:32:15.408Z,62.58
2022-11-20T11:34:42.645Z,62.80
2022-11-20T11:37:18.584Z,64.65
2022-11-20T11:39:49.397Z,65.12
2022-11-20T11:42:22.125Z,64.87
2022-11-20T11:45:07.803Z,65.00
2022-11-20T11:47:46.470Z,64.79
2022-11-20T11:50:13.248Z,66.58
2022-11-20T11:52:52.381Z,66.53
2022-11-20T11:55:34.347Z,67.10
2022-11-20T11:58:26.410Z,67.16
2022-11-20T12:01:04.391Z,67.53
2022-11-20T12:03:44.382Z,67.44
2022-11-20T12:06:15.184Z,66.82
2022-11-20T12:09:00.726Z,67.57
2022-11-20T12:11:38.952Z,66.88
2022-11-20T12:14:30.798Z,68.12
2022-11-20T12:16:58.683Z,68.15
2022-11-20T12:19:26.099Z,69.26
2022-11-20T12:22:01.898Z,70.37
2022-11-20T12:24:30.096Z,71.47
2022-11-20T12:27:15.456Z,71.81
2022-11-20T12:30:14.752Z,72.20
2022-11-20T12:32:45.187Z,72.36
2022-11-20T12:35:30.607Z,73.23
2022-11-20T12:38:09.613Z,72.50
2022-11-20T12:40:54.867Z,72.54
2022-11-20T12:43:51.410Z,73.12
2022-11-20T12:46:27.332Z,72.93
2022-11-20T12:49:01.242Z,71.95
2022-11-20T12:51:35.165Z,72.60
2022-11-20T12:54:07.877Z,72.36
2022-11-20T12:56:47.062Z,72.35
2022-11-20T12:59:32.639Z,72.37
2022-11-20T13:02:33.269Z,72.01
2022-11-20T13:05:22.770Z,72.94
2022-11-20T13:07:53.181Z,72.48
2022-11-20T13:10:28.830Z,71.94
2022-11-20T13:13:06.726Z,71.56
2022-11-20T13:15:44.563Z,71.57
2022-11-20T13:18:13.514Z,71.08
2022-11-20T13:20:48.038Z,71.38
2022-11-20T13:23:28.656Z,70.58
2022-11-20T13:26:18.708Z,67.93
2022-11-20T13:28:50.651Z,66.98
2022-11-20T13:31:31.897Z,66.88
2022-11-20T13:34:01.161Z,68.78
2022-11-20T13:36:31.695Z,69.14
2022-11-20T13:38:59.156Z,68.46
2022-11-20T13:41:36.530Z,68.94
2022-11-20T13:44:25.044Z,68.42
2022-11-20T13:46:52.669Z,68.69
2022-11-20T13:49:29.012Z,68.67
2022-11-20T13:52:20.405Z,68.72
2022-11-20T13:54:56.384Z,69.40
2022-11-20T13:57:33.874Z,71.07
2022-11-20T14:00:14.765Z,71.78
2022-11-20T14:02:43.891Z,72.77
2022-11-20T14:05:24.709Z,73.07
2022-11-20T14:07:54.149Z,73.54
2022-11-20T14:10:31.285Z,75.04
2022-11-20T14:12:59.189Z,75.01
2022-11-20T14:15:29.079Z,74.90
2022-11-20T14:17:56.474Z,74.06
2022-11-20T14:20:28.606Z,72.79
2022-11-20T14:22:56.557Z,72.27
2022-11-20T14:25:28.377Z,71.91
2022-11-20T14:27:58.669Z,71.46
2022-11-20T14:30:29.058Z,72.60
2022-11-20T14:33:01.274Z,73.82
2022-11-20T14:35:35.691Z,74.76
2022-11-20T14:38:03.765Z,76.01
2022-11-20T14:40:39.818Z,77.56
2022-11-20T14:43:38.987Z,78.88
2022-11-20T14:46:13.387Z,79.73
2022-11-20T14:48:44.382Z,80.29
2022-11-20T14:51:13.447Z,80.93
2022-11-20T14:53:40.618Z,80.99
2022-11-20T14:56:09.446Z,81.42
2022-11-20T14:58:36.444Z,81.69
2022-11-20T15:01:06.731Z,82.11
2022-11-20T15:03:39.360Z,82.09
2022-11-20T15:06:12.542Z,82.61
2022-11-20T15:08:39.800Z,82.77
2022-11-20T15:11:24.967Z,83.03
2022-11-20T15:13:52.112Z,83.32
2022-11-20T15:16:22.099Z,83.83
2022-11-20T15:18:49.600Z,84.28
2022-11-20T15:21:19.275Z,84.79
2022-11-20T15:23:46.539Z,84.89
2022-11-20T15:26:20.025Z,86.32
2022-11-20T15:28:51.465Z,86.13
2022-11-20T15:31:21.390Z,86.30
2022-11-20T15:33:49.224Z,86.36
2022-11-20T15:36:16.698Z,86.33
2022-11-20T15:38:43.949Z,86.85
2022-11-20T15:41:13.877Z,87.82
2022-11-20T15:43:40.818Z,87.40
2022-11-20T15:46:13.113Z,87.89
2022-11-20T15:48:48.558Z,88.27
2022-11-20T15:51:26.781Z,89.26
2022-11-20T15:53:54.155Z,89.80
2022-11-20T15:56:21.833Z,90.20
2022-11-20T15:58:49.164Z,90.15
2022-11-20T16:01:19.768Z,89.92
2022-11-20T16:03:47.709Z,89.59
2022-11-20T16:06:15.068Z,89.04
2022-11-20T16:08:42.623Z,89.63
2022-11-20T16:11:14.073Z,89.41
2022-11-20T16:13:59.729Z,89.49
2022-11-20T16:16:31.567Z,90.71
2022-11-20T16:18:59.377Z,91.47
2022-11-20T16:21:32.567Z,92.07
2022-11-20T16:24:01.370Z,91.81
2022-11-20T16:26:28.930Z,91.62
2022-11-20T16:28:57.166Z,91.53
2022-11-20T16:31:24.598Z,91.75
2022-11-20T16:33:59.681Z,91.62
2022-11-20T16:36:28.928Z,91.75
2022-11-20T16:38:59.317Z,91.99
2022-11-20T16:41:28.430Z,92.80
2022-11-20T16:44:03.653Z,92.59
2022-11-20T16:46:32.830Z,92.80
2022-11-20T16:49:01.042Z,92.88
2022-11-20T16:51:29.916Z,93.31
2022-11-20T16:53:57.263Z,93.93
2022-11-20T16:56:27.154Z,93.89
2022-11-20T16:58:56.928Z,94.08
2022-11-20T17:01:25.555Z,94.34
2022-11-20T17:04:04.832Z,94.61
2022-11-20T17:06:34.872Z,94.57
2022-11-20T17:09:02.656Z,94.74
2022-11-20T17:11:30.241Z,94.97
2022-11-20T17:14:00.900Z,95.39
2022-11-20T17:16:28.589Z,95.59
2022-11-20T17:19:02.815Z,95.70
2022-11-20T17:21:36.471Z,95.71
2022-11-20T17:24:05.992Z,96.15
2022-11-20T17:26:34.377Z,95.93
2022-11-20T17:29:07.756Z,96.05
2022-11-20T17:31:36.154Z,96.40
2022-11-20T17:34:03.620Z,96.85
2022-11-20T17:36:31.362Z,96.72
2022-11-20T17:38:59.466Z,97.13
2022-11-20T17:41:28.422Z,97.27
2022-11-20T17:44:00.770Z,97.41
2022-11-20T17:46:30.847Z,97.38
2022-11-20T17:48:58.270Z,97.62
2022-11-20T17:51:27.844Z,98.47
2022-11-20T17:54:04.011Z,99.52
2022-11-20T17:56:54.501Z,99.36
2022-11-20T17:59:22.696Z,99.15
2022-11-20T18:01:49.667Z,98.87
2022-11-20T18:04:17.516Z,99.32
2022-11-20T18:06:45.125Z,99.46
2022-11-20T18:09:13.045Z,99.58
2022-11-20T18:11:42.438Z,99.97
2022-11-20T18:14:29.647Z,99.93
2022-11-20T18:17:06.303Z,99.79
2022-11-20T18:19:44.695Z,99.62
2022-11-20T18:22:20.286Z,99.76
2022-11-20T18:24:47.634Z,99.73
2022-11-20T18:27:21.885Z,99.76
2022-11-20T18:29:52.339Z,99.99
2022-11-20T18:32:21.825Z,100.00
2022-11-20T18:34:49.363Z,100.00
2022-11-20T18:37:17.144Z,100.00
2022-11-20T18:39:44.823Z,100.00
2022-11-20T18:42:35.545Z,100.00
2022-11-20T18:45:05.533Z,100.00
2022-11-20T18:47:38.073Z,100.00
2022-11-20T18:50:07.139Z,100.00
2022-11-20T18:52:40.570Z,100.00
2022-11-20T18:55:08.679Z,100.00
2022-11-20T18:57:36.212Z,100.00
2022-11-20T19:02:55.156Z,99.89
2022-11-20T19:05:22.869Z,99.76
2022-11-20T19:07:50.545Z,99.96
2022-11-20T19:10:21.210Z,99.85
2022-11-20T19:12:49.277Z,100.00
2022-11-20T19:15:16.833Z,100.00
2022-11-20T19:17:44.357Z,100.00
2022-11-20T19:20:12.074Z,100.00
2022-11-20T19:22:39.511Z,100.00
2022-11-20T19:25:07.410Z,100.00
2022-11-20T19:27:34.876Z,100.00
2022-11-20T19:30:04.216Z,100.00
2022-11-20T19:32:31.228Z,100.00
2022-11-20T19:34:58.505Z,100.00
2022-11-20T19:37:25.850Z,100.00
2022-11-20T19:39:53.191Z,100.00
2022-11-20T19:42:20.104Z,100.00
2022-11-20T19:44:47.042Z,100.00
2022-11-20T19:47:14.862Z,100.00
2022-11-20T19:49:42.596Z,100.00
2022-11-20T19:52:10.599Z,100.00
2022-11-20T19:54:38.091Z,100.00
2022-11-20T19:57:05.306Z,100.00
2022-11-20T19:59:32.174Z,100.00
2022-11-20T20:01:59.051Z,100.00
2022-11-20T20:04:26.649Z,100.00
2022-11-20T20:06:54.094Z,100.00
2022-11-20T20:09:24.056Z,100.00
2022-11-20T20:11:51.517Z,100.00
2022-11-20T20:14:18.978Z,100.00
2022-11-20T20:16:46.064Z,100.00
2022-11-20T20:19:15.857Z,100.00
2022-11-20T20:21:43.949Z,100.00
2022-11-20T20:24:13.057Z,100.00
2022-11-20T20:26:42.695Z,100.00
2022-11-20T20:29:10.608Z,100.00
2022-11-20T20:31:37.973Z,100.00
2022-11-20T20:34:06.041Z,100.00
2022-11-20T20:36:33.307Z,100.00
2022-11-20T20:39:00.569Z,100.00
2022-11-20T20:41:27.900Z,100.00
2022-11-20T20:44:14.247Z,100.00
2022-11-20T20:46:42.064Z,100.00
2022-11-20T20:49:09.823Z,100.00
2022-11-20T20:51:36.780Z,100.00
2022-11-20T20:54:05.104Z,100.00
2022-11-20T20:56:35.326Z,100.00
2022-11-20T20:59:04.083Z,100.00
2022-11-20T21:01:32.587Z,100.00
2022-11-20T21:04:00.059Z,100.00
2022-11-20T21:06:27.070Z,100.00
2022-11-20T21:08:55.994Z,100.00
2022-11-20T21:11:23.116Z,100.00
2022-11-20T21:13:51.302Z,100.00
2022-11-20T21:16:21.154Z,100.00
2022-11-20T21:18:48.593Z,100.00
2022-11-20T21:21:35.118Z,100.00
2022-11-20T21:24:02.929Z,100.00
2022-11-20T21:26:29.848Z,100.00
2022-11-20T21:28:57.861Z,100.00
2022-11-20T21:31:27.072Z,100.00
2022-11-20T21:33:55.600Z,100.00
2022-11-20T21:36:28.554Z,100.00
2022-11-20T21:38:57.012Z,100.00
2022-11-20T21:41:26.644Z,100.00
2022-11-20T21:46:45.700Z,100.00
2022-11-20T21:49:13.284Z,100.00
2022-11-20T21:51:40.692Z,100.00
2022-11-20T21:54:07.583Z,100.00
2022-11-20T21:56:34.495Z,100.00
2022-11-20T21:59:01.396Z,100.00
2022-11-20T22:01:30.185Z,100.00
2022-11-20T22:03:59.267Z,100.00
2022-11-20T22:06:29.635Z,100.00
2022-11-20T22:08:56.884Z,100.00
2022-11-20T22:11:24.082Z,100.00
2022-11-20T22:14:09.590Z,100.00
2022-11-20T22:16:38.002Z,100.00
2022-11-20T22:19:20.590Z,100.00
2022-11-20T22:21:48.103Z,100.00
2022-11-20T22:24:17.205Z,100.00
2022-11-20T22:26:44.255Z,100.00
2022-11-20T22:29:17.042Z,100.00
2022-11-20T22:31:44.129Z,100.00
2022-11-20T22:34:13.168Z,100.00
2022-11-20T22:36:40.590Z,100.00
2022-11-20T22:39:07.742Z,100.00
2022-11-20T22:41:34.937Z,100.00
2022-11-20T22:44:04.821Z,100.00
2022-11-20T22:46:33.986Z,100.00
2022-11-20T22:49:03.033Z,100.00
2022-11-20T22:51:32.841Z,100.00
2022-11-20T22:54:00.245Z,100.00
2022-11-20T22:56:27.179Z,100.00
2022-11-20T22:58:54.331Z,100.00
2022-11-20T23:01:26.407Z,100.00
2022-11-20T23:04:01.469Z,100.00
2022-11-20T23:06:29.093Z,100.00
2022-11-20T23:08:57.043Z,100.00
2022-11-20T23:11:26.881Z,100.00
2022-11-20T23:14:02.830Z,100.00
2022-11-20T23:16:31.401Z,100.00
2022-11-20T23:19:01.301Z,100.00
2022-11-20T23:21:28.712Z,100.00
2022-11-20T23:23:57.288Z,100.00
2022-11-20T23:26:28.437Z,100.00
2022-11-20T23:28:57.855Z,100.00
2022-11-20T23:31:27.049Z,100.00
2022-11-20T23:33:55.935Z,100.00
2022-11-20T23:36:23.344Z,100.00
2022-11-20T23:38:50.519Z,100.00
2022-11-20T23:41:17.622Z,100.00
2022-11-20T23:43:44.468Z,100.00
2022-11-20T23:46:15.123Z,100.00
2022-11-20T23:48:45.069Z,100.00
2022-11-20T23:51:13.116Z,100.00
2022-11-20T23:53:40.057Z,100.00
2022-11-20T23:56:06.995Z,100.00
2022-11-20T23:58:36.758Z,100.00
